sensor_id;sensor_type;location;lat;lon;timestamp;P1;durP1;ratioP1;P2;durP2;ratioP2
65583;SDS011;62116;43.582;1.470;2022-08-19T00:00:08;5.47;;;3.25;;
65583;SDS011;62116;43.582;1.470;2022-08-19T00:02:35;7.40;;;3.40;;
65583;SDS011;62116;43.582;1.470;2022-08-19T00:05:01;8.05;;;3.13;;
65583;SDS011;62116;43.582;1.470;2022-08-19T00:07:27;7.20;;;3.17;;
65583;SDS011;62116;43.582;1.470;2022-08-19T00:09:52;7.45;;;3.40;;
65583;SDS011;62116;43.582;1.470;2022-08-19T00:12:19;8.23;;;3.40;;
65583;SDS011;62116;43.582;1.470;2022-08-19T00:14:44;6.65;;;3.10;;
65583;SDS011;62116;43.582;1.470;2022-08-19T00:17:10;6.25;;;3.40;;
65583;SDS011;62116;43.582;1.470;2022-08-19T00:19:36;6.85;;;3.40;;
65583;SDS011;62116;43.582;1.470;2022-08-19T00:22:01;5.60;;;2.97;;
65583;SDS011;62116;43.582;1.470;2022-08-19T00:24:27;7.65;;;3.42;;
65583;SDS011;62116;43.582;1.470;2022-08-19T00:26:53;6.93;;;3.22;;
65583;SDS011;62116;43.582;1.470;2022-08-19T00:29:21;5.13;;;3.10;;
65583;SDS011;62116;43.582;1.470;2022-08-19T00:31:48;5.88;;;3.42;;
65583;SDS011;62116;43.582;1.470;2022-08-19T00:34:15;6.05;;;3.13;;
65583;SDS011;62116;43.582;1.470;2022-08-19T00:36:41;8.43;;;2.92;;
65583;SDS011;62116;43.582;1.470;2022-08-19T00:39:07;8.02;;;3.50;;
65583;SDS011;62116;43.582;1.470;2022-08-19T00:41:33;7.97;;;3.38;;
65583;SDS011;62116;43.582;1.470;2022-08-19T00:46:31;7.75;;;3.40;;
65583;SDS011;62116;43.582;1.470;2022-08-19T00:48:58;6.90;;;3.38;;
65583;SDS011;62116;43.582;1.470;2022-08-19T00:51:26;10.25;;;3.35;;
65583;SDS011;62116;43.582;1.470;2022-08-19T00:53:54;6.75;;;3.53;;
65583;SDS011;62116;43.582;1.470;2022-08-19T00:56:21;9.15;;;3.60;;
65583;SDS011;62116;43.582;1.470;2022-08-19T00:58:48;6.40;;;3.50;;
65583;SDS011;62116;43.582;1.470;2022-08-19T01:01:14;5.88;;;3.30;;
65583;SDS011;62116;43.582;1.470;2022-08-19T01:03:39;5.15;;;3.13;;
65583;SDS011;62116;43.582;1.470;2022-08-19T01:06:05;9.45;;;3.30;;
65583;SDS011;62116;43.582;1.470;2022-08-19T01:08:30;8.48;;;3.80;;
65583;SDS011;62116;43.582;1.470;2022-08-19T01:10:57;9.02;;;3.47;;
65583;SDS011;62116;43.582;1.470;2022-08-19T01:13:25;8.18;;;3.15;;
65583;SDS011;62116;43.582;1.470;2022-08-19T01:15:57;7.40;;;3.25;;
65583;SDS011;62116;43.582;1.470;2022-08-19T01:18:26;7.50;;;3.35;;
65583;SDS011;62116;43.582;1.470;2022-08-19T01:20:53;5.63;;;3.47;;
65583;SDS011;62116;43.582;1.470;2022-08-19T01:23:21;7.50;;;3.35;;
65583;SDS011;62116;43.582;1.470;2022-08-19T01:25:48;10.10;;;3.38;;
65583;SDS011;62116;43.582;1.470;2022-08-19T01:28:24;10.50;;;3.83;;
65583;SDS011;62116;43.582;1.470;2022-08-19T01:30:51;6.78;;;3.55;;
65583;SDS011;62116;43.582;1.470;2022-08-19T01:33:18;8.43;;;3.70;;
65583;SDS011;62116;43.582;1.470;2022-08-19T01:35:44;6.82;;;3.55;;
65583;SDS011;62116;43.582;1.470;2022-08-19T01:38:17;10.90;;;3.55;;
65583;SDS011;62116;43.582;1.470;2022-08-19T01:40:51;7.43;;;3.42;;
65583;SDS011;62116;43.582;1.470;2022-08-19T01:43:17;11.32;;;3.95;;
65583;SDS011;62116;43.582;1.470;2022-08-19T01:45:44;9.73;;;3.65;;
65583;SDS011;62116;43.582;1.470;2022-08-19T01:48:10;6.68;;;3.50;;
65583;SDS011;62116;43.582;1.470;2022-08-19T01:50:36;7.47;;;3.60;;
65583;SDS011;62116;43.582;1.470;2022-08-19T01:53:02;8.15;;;3.65;;
65583;SDS011;62116;43.582;1.470;2022-08-19T01:55:30;10.32;;;3.97;;
65583;SDS011;62116;43.582;1.470;2022-08-19T01:57:57;9.55;;;3.42;;
65583;SDS011;62116;43.582;1.470;2022-08-19T02:00:25;11.60;;;3.60;;
65583;SDS011;62116;43.582;1.470;2022-08-19T02:02:54;9.03;;;3.40;;
65583;SDS011;62116;43.582;1.470;2022-08-19T02:05:20;9.80;;;3.75;;
65583;SDS011;62116;43.582;1.470;2022-08-19T02:07:46;9.88;;;3.70;;
65583;SDS011;62116;43.582;1.470;2022-08-19T02:10:13;11.45;;;3.95;;
65583;SDS011;62116;43.582;1.470;2022-08-19T02:12:41;8.75;;;3.78;;
65583;SDS011;62116;43.582;1.470;2022-08-19T02:15:07;7.40;;;3.40;;
65583;SDS011;62116;43.582;1.470;2022-08-19T02:17:33;11.20;;;3.95;;
65583;SDS011;62116;43.582;1.470;2022-08-19T02:19:59;7.43;;;3.65;;
65583;SDS011;62116;43.582;1.470;2022-08-19T02:22:25;7.00;;;3.63;;
65583;SDS011;62116;43.582;1.470;2022-08-19T02:24:51;5.75;;;3.55;;
65583;SDS011;62116;43.582;1.470;2022-08-19T02:27:17;9.15;;;3.50;;
65583;SDS011;62116;43.582;1.470;2022-08-19T02:29:43;10.00;;;4.00;;
65583;SDS011;62116;43.582;1.470;2022-08-19T02:32:10;9.95;;;3.60;;
65583;SDS011;62116;43.582;1.470;2022-08-19T02:34:36;10.18;;;3.55;;
65583;SDS011;62116;43.582;1.470;2022-08-19T02:37:01;8.70;;;3.70;;
65583;SDS011;62116;43.582;1.470;2022-08-19T02:39:26;7.90;;;3.53;;
65583;SDS011;62116;43.582;1.470;2022-08-19T02:41:52;9.43;;;3.63;;
65583;SDS011;62116;43.582;1.470;2022-08-19T02:44:18;8.88;;;3.20;;
65583;SDS011;62116;43.582;1.470;2022-08-19T02:46:44;10.50;;;3.53;;
65583;SDS011;62116;43.582;1.470;2022-08-19T02:49:11;7.05;;;3.38;;
65583;SDS011;62116;43.582;1.470;2022-08-19T02:51:38;11.52;;;4.07;;
65583;SDS011;62116;43.582;1.470;2022-08-19T02:54:05;8.48;;;3.47;;
65583;SDS011;62116;43.582;1.470;2022-08-19T02:56:34;8.90;;;3.63;;
65583;SDS011;62116;43.582;1.470;2022-08-19T02:59:01;11.98;;;3.65;;
65583;SDS011;62116;43.582;1.470;2022-08-19T03:01:28;10.10;;;3.33;;
65583;SDS011;62116;43.582;1.470;2022-08-19T03:03:56;8.68;;;3.20;;
65583;SDS011;62116;43.582;1.470;2022-08-19T03:06:24;8.55;;;3.20;;
65583;SDS011;62116;43.582;1.470;2022-08-19T03:08:50;10.45;;;3.63;;
65583;SDS011;62116;43.582;1.470;2022-08-19T03:11:17;9.18;;;3.35;;
65583;SDS011;62116;43.582;1.470;2022-08-19T03:13:44;9.13;;;3.38;;
65583;SDS011;62116;43.582;1.470;2022-08-19T03:16:10;10.85;;;4.00;;
65583;SDS011;62116;43.582;1.470;2022-08-19T03:18:37;9.52;;;3.60;;
65583;SDS011;62116;43.582;1.470;2022-08-19T03:21:03;8.65;;;3.60;;
65583;SDS011;62116;43.582;1.470;2022-08-19T03:23:29;10.45;;;3.80;;
65583;SDS011;62116;43.582;1.470;2022-08-19T03:25:54;9.05;;;3.30;;
65583;SDS011;62116;43.582;1.470;2022-08-19T03:28:20;7.72;;;3.47;;
65583;SDS011;62116;43.582;1.470;2022-08-19T03:30:56;9.80;;;3.45;;
65583;SDS011;62116;43.582;1.470;2022-08-19T03:33:24;7.57;;;3.28;;
65583;SDS011;62116;43.582;1.470;2022-08-19T03:38:49;10.23;;;3.72;;
65583;SDS011;62116;43.582;1.470;2022-08-19T03:41:21;8.27;;;3.38;;
65583;SDS011;62116;43.582;1.470;2022-08-19T03:43:48;11.35;;;3.50;;
65583;SDS011;62116;43.582;1.470;2022-08-19T03:46:18;9.65;;;3.70;;
65583;SDS011;62116;43.582;1.470;2022-08-19T03:48:46;9.07;;;3.55;;
65583;SDS011;62116;43.582;1.470;2022-08-19T03:51:17;10.73;;;3.15;;
65583;SDS011;62116;43.582;1.470;2022-08-19T03:53:44;12.65;;;3.78;;
65583;SDS011;62116;43.582;1.470;2022-08-19T03:56:11;8.50;;;3.28;;
65583;SDS011;62116;43.582;1.470;2022-08-19T03:58:38;9.30;;;3.60;;
65583;SDS011;62116;43.582;1.470;2022-08-19T04:01:09;7.50;;;3.33;;
65583;SDS011;62116;43.582;1.470;2022-08-19T04:03:36;12.05;;;3.60;;
65583;SDS011;62116;43.582;1.470;2022-08-19T04:06:12;9.80;;;4.00;;
65583;SDS011;62116;43.582;1.470;2022-08-19T04:08:40;7.72;;;3.30;;
65583;SDS011;62116;43.582;1.470;2022-08-19T04:11:10;11.18;;;3.25;;
65583;SDS011;62116;43.582;1.470;2022-08-19T04:13:39;9.90;;;3.10;;
65583;SDS011;62116;43.582;1.470;2022-08-19T04:16:05;9.23;;;3.30;;
65583;SDS011;62116;43.582;1.470;2022-08-19T04:18:33;12.18;;;3.50;;
65583;SDS011;62116;43.582;1.470;2022-08-19T04:20:59;8.15;;;3.40;;
65583;SDS011;62116;43.582;1.470;2022-08-19T04:23:25;7.93;;;3.30;;
65583;SDS011;62116;43.582;1.470;2022-08-19T04:25:52;7.28;;;3.00;;
65583;SDS011;62116;43.582;1.470;2022-08-19T04:28:17;7.80;;;3.08;;
65583;SDS011;62116;43.582;1.470;2022-08-19T04:30:44;9.32;;;3.13;;
65583;SDS011;62116;43.582;1.470;2022-08-19T04:33:12;7.80;;;2.95;;
65583;SDS011;62116;43.582;1.470;2022-08-19T04:35:39;5.70;;;3.08;;
65583;SDS011;62116;43.582;1.470;2022-08-19T04:38:06;7.55;;;3.30;;
65583;SDS011;62116;43.582;1.470;2022-08-19T04:40:32;9.35;;;3.40;;
65583;SDS011;62116;43.582;1.470;2022-08-19T04:43:16;8.50;;;3.28;;
65583;SDS011;62116;43.582;1.470;2022-08-19T04:45:44;7.13;;;3.00;;
65583;SDS011;62116;43.582;1.470;2022-08-19T04:48:11;10.25;;;3.25;;
65583;SDS011;62116;43.582;1.470;2022-08-19T04:50:41;8.82;;;2.88;;
65583;SDS011;62116;43.582;1.470;2022-08-19T04:53:07;9.02;;;2.90;;
65583;SDS011;62116;43.582;1.470;2022-08-19T04:55:34;6.90;;;3.17;;
65583;SDS011;62116;43.582;1.470;2022-08-19T04:58:00;9.02;;;3.10;;
65583;SDS011;62116;43.582;1.470;2022-08-19T05:00:27;8.18;;;2.97;;
65583;SDS011;62116;43.582;1.470;2022-08-19T05:02:52;6.75;;;2.85;;
65583;SDS011;62116;43.582;1.470;2022-08-19T05:05:20;8.68;;;3.28;;
65583;SDS011;62116;43.582;1.470;2022-08-19T05:07:46;8.35;;;3.22;;
65583;SDS011;62116;43.582;1.470;2022-08-19T05:10:11;9.00;;;3.15;;
65583;SDS011;62116;43.582;1.470;2022-08-19T05:12:37;13.63;;;3.33;;
65583;SDS011;62116;43.582;1.470;2022-08-19T05:15:04;9.40;;;3.70;;
65583;SDS011;62116;43.582;1.470;2022-08-19T05:17:30;9.70;;;3.22;;
65583;SDS011;62116;43.582;1.470;2022-08-19T05:19:56;7.88;;;3.10;;
65583;SDS011;62116;43.582;1.470;2022-08-19T05:22:41;8.93;;;3.38;;
65583;SDS011;62116;43.582;1.470;2022-08-19T05:25:09;6.90;;;3.10;;
65583;SDS011;62116;43.582;1.470;2022-08-19T05:27:37;9.10;;;3.08;;
65583;SDS011;62116;43.582;1.470;2022-08-19T05:30:03;10.50;;;2.90;;
65583;SDS011;62116;43.582;1.470;2022-08-19T05:32:29;9.25;;;2.92;;
65583;SDS011;62116;43.582;1.470;2022-08-19T05:34:54;7.85;;;2.97;;
65583;SDS011;62116;43.582;1.470;2022-08-19T05:37:20;11.15;;;3.40;;
65583;SDS011;62116;43.582;1.470;2022-08-19T05:39:46;9.18;;;3.20;;
65583;SDS011;62116;43.582;1.470;2022-08-19T05:42:12;9.48;;;3.40;;
65583;SDS011;62116;43.582;1.470;2022-08-19T05:44:38;7.88;;;3.08;;
65583;SDS011;62116;43.582;1.470;2022-08-19T05:47:09;11.27;;;3.22;;
65583;SDS011;62116;43.582;1.470;2022-08-19T05:49:37;9.05;;;3.17;;
65583;SDS011;62116;43.582;1.470;2022-08-19T05:52:07;12.35;;;3.47;;
65583;SDS011;62116;43.582;1.470;2022-08-19T05:54:36;9.40;;;3.38;;
65583;SDS011;62116;43.582;1.470;2022-08-19T05:57:05;10.32;;;3.28;;
65583;SDS011;62116;43.582;1.470;2022-08-19T05:59:30;9.85;;;3.13;;
65583;SDS011;62116;43.582;1.470;2022-08-19T06:01:56;9.85;;;3.40;;
65583;SDS011;62116;43.582;1.470;2022-08-19T06:04:22;9.60;;;3.03;;
65583;SDS011;62116;43.582;1.470;2022-08-19T06:06:51;10.57;;;3.70;;
65583;SDS011;62116;43.582;1.470;2022-08-19T06:09:17;8.40;;;3.30;;
65583;SDS011;62116;43.582;1.470;2022-08-19T06:11:47;6.72;;;3.10;;
65583;SDS011;62116;43.582;1.470;2022-08-19T06:14:19;10.13;;;3.45;;
65583;SDS011;62116;43.582;1.470;2022-08-19T06:16:49;13.48;;;3.30;;
65583;SDS011;62116;43.582;1.470;2022-08-19T06:19:17;9.13;;;3.40;;
65583;SDS011;62116;43.582;1.470;2022-08-19T06:21:45;10.25;;;3.20;;
65583;SDS011;62116;43.582;1.470;2022-08-19T06:24:13;10.68;;;3.53;;
65583;SDS011;62116;43.582;1.470;2022-08-19T06:26:41;13.07;;;3.78;;
65583;SDS011;62116;43.582;1.470;2022-08-19T06:29:08;9.50;;;3.20;;
65583;SDS011;62116;43.582;1.470;2022-08-19T06:31:37;8.77;;;3.47;;
65583;SDS011;62116;43.582;1.470;2022-08-19T06:34:06;7.43;;;3.13;;
65583;SDS011;62116;43.582;1.470;2022-08-19T06:36:33;11.35;;;3.30;;
65583;SDS011;62116;43.582;1.470;2022-08-19T06:39:05;8.80;;;3.28;;
65583;SDS011;62116;43.582;1.470;2022-08-19T06:41:36;10.60;;;3.45;;
65583;SDS011;62116;43.582;1.470;2022-08-19T06:44:03;12.43;;;3.45;;
65583;SDS011;62116;43.582;1.470;2022-08-19T06:46:29;8.73;;;3.38;;
65583;SDS011;62116;43.582;1.470;2022-08-19T06:48:55;8.95;;;3.50;;
65583;SDS011;62116;43.582;1.470;2022-08-19T06:51:21;11.13;;;3.22;;
65583;SDS011;62116;43.582;1.470;2022-08-19T06:53:48;9.45;;;3.40;;
65583;SDS011;62116;43.582;1.470;2022-08-19T06:56:16;8.73;;;3.20;;
65583;SDS011;62116;43.582;1.470;2022-08-19T06:58:43;10.18;;;3.35;;
65583;SDS011;62116;43.582;1.470;2022-08-19T07:01:09;9.13;;;3.35;;
65583;SDS011;62116;43.582;1.470;2022-08-19T07:03:35;7.07;;;3.15;;
65583;SDS011;62116;43.582;1.470;2022-08-19T07:06:04;13.43;;;3.22;;
65583;SDS011;62116;43.582;1.470;2022-08-19T07:08:30;12.00;;;3.55;;
65583;SDS011;62116;43.582;1.470;2022-08-19T07:10:56;10.90;;;3.40;;
65583;SDS011;62116;43.582;1.470;2022-08-19T07:13:22;7.93;;;3.03;;
65583;SDS011;62116;43.582;1.470;2022-08-19T07:15:48;9.65;;;3.60;;
65583;SDS011;62116;43.582;1.470;2022-08-19T07:18:15;6.90;;;2.60;;
65583;SDS011;62116;43.582;1.470;2022-08-19T07:20:41;10.00;;;2.95;;
65583;SDS011;62116;43.582;1.470;2022-08-19T07:23:08;7.82;;;3.40;;
65583;SDS011;62116;43.582;1.470;2022-08-19T07:25:35;9.55;;;3.35;;
65583;SDS011;62116;43.582;1.470;2022-08-19T07:28:02;8.35;;;3.15;;
65583;SDS011;62116;43.582;1.470;2022-08-19T07:30:28;10.20;;;3.30;;
65583;SDS011;62116;43.582;1.470;2022-08-19T07:32:53;12.27;;;3.28;;
65583;SDS011;62116;43.582;1.470;2022-08-19T07:35:19;9.95;;;3.63;;
65583;SDS011;62116;43.582;1.470;2022-08-19T07:37:45;8.85;;;2.97;;
65583;SDS011;62116;43.582;1.470;2022-08-19T07:40:11;8.18;;;2.70;;
65583;SDS011;62116;43.582;1.470;2022-08-19T07:42:37;10.50;;;3.30;;
65583;SDS011;62116;43.582;1.470;2022-08-19T07:45:03;8.77;;;3.30;;
65583;SDS011;62116;43.582;1.470;2022-08-19T07:47:29;9.02;;;3.03;;
65583;SDS011;62116;43.582;1.470;2022-08-19T07:49:55;10.07;;;3.22;;
65583;SDS011;62116;43.582;1.470;2022-08-19T07:52:21;10.50;;;3.30;;
65583;SDS011;62116;43.582;1.470;2022-08-19T07:54:47;8.45;;;2.85;;
65583;SDS011;62116;43.582;1.470;2022-08-19T07:57:14;9.60;;;3.17;;
65583;SDS011;62116;43.582;1.470;2022-08-19T07:59:40;7.05;;;3.00;;
65583;SDS011;62116;43.582;1.470;2022-08-19T08:02:05;8.05;;;3.10;;
65583;SDS011;62116;43.582;1.470;2022-08-19T08:04:32;7.93;;;2.80;;
65583;SDS011;62116;43.582;1.470;2022-08-19T08:07:16;9.30;;;3.00;;
65583;SDS011;62116;43.582;1.470;2022-08-19T08:10:00;7.63;;;2.92;;
65583;SDS011;62116;43.582;1.470;2022-08-19T08:12:27;6.97;;;3.00;;
65583;SDS011;62116;43.582;1.470;2022-08-19T08:14:57;9.13;;;3.03;;
65583;SDS011;62116;43.582;1.470;2022-08-19T08:17:27;7.50;;;2.90;;
65583;SDS011;62116;43.582;1.470;2022-08-19T08:19:54;10.20;;;3.20;;
65583;SDS011;62116;43.582;1.470;2022-08-19T08:22:20;6.70;;;3.15;;
65583;SDS011;62116;43.582;1.470;2022-08-19T08:25:07;8.85;;;3.47;;
65583;SDS011;62116;43.582;1.470;2022-08-19T08:27:36;8.50;;;3.05;;
65583;SDS011;62116;43.582;1.470;2022-08-19T08:30:04;10.18;;;3.20;;
65583;SDS011;62116;43.582;1.470;2022-08-19T08:32:34;9.75;;;3.28;;
65583;SDS011;62116;43.582;1.470;2022-08-19T08:35:00;9.98;;;3.33;;
65583;SDS011;62116;43.582;1.470;2022-08-19T08:37:25;11.70;;;3.13;;
65583;SDS011;62116;43.582;1.470;2022-08-19T08:39:50;7.65;;;3.22;;
65583;SDS011;62116;43.582;1.470;2022-08-19T08:45:03;7.25;;;2.97;;
65583;SDS011;62116;43.582;1.470;2022-08-19T08:47:38;7.80;;;3.08;;
65583;SDS011;62116;43.582;1.470;2022-08-19T08:50:08;8.90;;;3.13;;
65583;SDS011;62116;43.582;1.470;2022-08-19T08:52:41;8.00;;;2.85;;
65583;SDS011;62116;43.582;1.470;2022-08-19T08:55:15;8.82;;;2.92;;
65583;SDS011;62116;43.582;1.470;2022-08-19T09:00:17;8.15;;;2.83;;
65583;SDS011;62116;43.582;1.470;2022-08-19T09:02:45;8.00;;;2.50;;
65583;SDS011;62116;43.582;1.470;2022-08-19T09:05:11;7.07;;;2.97;;
65583;SDS011;62116;43.582;1.470;2022-08-19T09:10:23;8.80;;;2.85;;
65583;SDS011;62116;43.582;1.470;2022-08-19T09:15:39;7.20;;;2.90;;
65583;SDS011;62116;43.582;1.470;2022-08-19T09:18:09;7.43;;;3.05;;
65583;SDS011;62116;43.582;1.470;2022-08-19T09:20:35;6.78;;;2.67;;
65583;SDS011;62116;43.582;1.470;2022-08-19T09:23:00;8.25;;;2.85;;
65583;SDS011;62116;43.582;1.470;2022-08-19T09:25:26;6.85;;;2.90;;
65583;SDS011;62116;43.582;1.470;2022-08-19T09:27:52;5.32;;;2.90;;
65583;SDS011;62116;43.582;1.470;2022-08-19T09:30:29;10.50;;;3.20;;
65583;SDS011;62116;43.582;1.470;2022-08-19T09:32:56;7.78;;;2.70;;
65583;SDS011;62116;43.582;1.470;2022-08-19T09:35:23;8.15;;;3.05;;
65583;SDS011;62116;43.582;1.470;2022-08-19T09:37:50;6.47;;;2.92;;
65583;SDS011;62116;43.582;1.470;2022-08-19T09:40:16;8.60;;;3.08;;
65583;SDS011;62116;43.582;1.470;2022-08-19T09:42:43;6.72;;;2.92;;
65583;SDS011;62116;43.582;1.470;2022-08-19T09:45:09;6.70;;;3.40;;
65583;SDS011;62116;43.582;1.470;2022-08-19T09:47:35;6.75;;;3.28;;
65583;SDS011;62116;43.582;1.470;2022-08-19T09:50:06;11.25;;;3.25;;
65583;SDS011;62116;43.582;1.470;2022-08-19T09:52:33;6.90;;;3.05;;
65583;SDS011;62116;43.582;1.470;2022-08-19T09:55:05;7.18;;;3.08;;
65583;SDS011;62116;43.582;1.470;2022-08-19T09:57:32;9.18;;;2.90;;
65583;SDS011;62116;43.582;1.470;2022-08-19T09:59:58;5.32;;;2.90;;
65583;SDS011;62116;43.582;1.470;2022-08-19T10:02:24;7.50;;;3.20;;
65583;SDS011;62116;43.582;1.470;2022-08-19T10:04:50;8.38;;;2.90;;
65583;SDS011;62116;43.582;1.470;2022-08-19T10:07:34;10.20;;;3.25;;
65583;SDS011;62116;43.582;1.470;2022-08-19T10:10:00;11.52;;;3.50;;
65583;SDS011;62116;43.582;1.470;2022-08-19T10:12:26;6.60;;;2.90;;
65583;SDS011;62116;43.582;1.470;2022-08-19T10:14:52;7.63;;;3.15;;
65583;SDS011;62116;43.582;1.470;2022-08-19T10:17:19;9.05;;;3.17;;
65583;SDS011;62116;43.582;1.470;2022-08-19T10:19:45;8.45;;;3.03;;
65583;SDS011;62116;43.582;1.470;2022-08-19T10:22:11;10.18;;;2.83;;
65583;SDS011;62116;43.582;1.470;2022-08-19T10:24:39;7.07;;;2.78;;
65583;SDS011;62116;43.582;1.470;2022-08-19T10:27:05;8.73;;;3.00;;
65583;SDS011;62116;43.582;1.470;2022-08-19T10:29:30;6.68;;;2.90;;
65583;SDS011;62116;43.582;1.470;2022-08-19T10:31:57;6.68;;;2.70;;
65583;SDS011;62116;43.582;1.470;2022-08-19T10:34:25;9.38;;;3.10;;
65583;SDS011;62116;43.582;1.470;2022-08-19T10:36:51;8.75;;;3.10;;
65583;SDS011;62116;43.582;1.470;2022-08-19T10:39:16;5.13;;;2.70;;
65583;SDS011;62116;43.582;1.470;2022-08-19T10:41:42;6.30;;;2.70;;
65583;SDS011;62116;43.582;1.470;2022-08-19T10:44:09;5.75;;;2.95;;
65583;SDS011;62116;43.582;1.470;2022-08-19T10:46:37;6.30;;;2.60;;
65583;SDS011;62116;43.582;1.470;2022-08-19T10:49:06;6.72;;;2.90;;
65583;SDS011;62116;43.582;1.470;2022-08-19T10:51:33;6.22;;;2.60;;
65583;SDS011;62116;43.582;1.470;2022-08-19T10:54:18;4.45;;;2.70;;
65583;SDS011;62116;43.582;1.470;2022-08-19T10:56:44;8.55;;;3.28;;
65583;SDS011;62116;43.582;1.470;2022-08-19T11:01:46;7.82;;;3.15;;
65583;SDS011;62116;43.582;1.470;2022-08-19T11:04:12;10.05;;;2.95;;
65583;SDS011;62116;43.582;1.470;2022-08-19T11:06:41;5.50;;;2.70;;
65583;SDS011;62116;43.582;1.470;2022-08-19T11:09:08;6.90;;;2.83;;
65583;SDS011;62116;43.582;1.470;2022-08-19T11:11:34;5.45;;;2.97;;
65583;SDS011;62116;43.582;1.470;2022-08-19T11:14:09;4.13;;;2.80;;
65583;SDS011;62116;43.582;1.470;2022-08-19T11:16:36;6.10;;;2.90;;
65583;SDS011;62116;43.582;1.470;2022-08-19T11:19:03;6.88;;;2.85;;
65583;SDS011;62116;43.582;1.470;2022-08-19T11:21:30;9.52;;;2.85;;
65583;SDS011;62116;43.582;1.470;2022-08-19T11:23:59;6.22;;;3.00;;
65583;SDS011;62116;43.582;1.470;2022-08-19T11:26:26;8.93;;;3.00;;
65583;SDS011;62116;43.582;1.470;2022-08-19T11:28:53;7.00;;;2.60;;
65583;SDS011;62116;43.582;1.470;2022-08-19T11:31:23;6.00;;;2.85;;
65583;SDS011;62116;43.582;1.470;2022-08-19T11:33:50;5.60;;;3.03;;
65583;SDS011;62116;43.582;1.470;2022-08-19T11:36:16;7.80;;;3.08;;
65583;SDS011;62116;43.582;1.470;2022-08-19T11:38:42;6.82;;;2.90;;
65583;SDS011;62116;43.582;1.470;2022-08-19T11:41:09;8.20;;;3.00;;
65583;SDS011;62116;43.582;1.470;2022-08-19T11:43:34;6.20;;;2.80;;
65583;SDS011;62116;43.582;1.470;2022-08-19T11:46:03;7.13;;;2.70;;
65583;SDS011;62116;43.582;1.470;2022-08-19T11:48:32;5.60;;;2.90;;
65583;SDS011;62116;43.582;1.470;2022-08-19T11:50:57;6.10;;;3.08;;
65583;SDS011;62116;43.582;1.470;2022-08-19T11:53:23;5.90;;;3.00;;
65583;SDS011;62116;43.582;1.470;2022-08-19T11:55:49;4.85;;;2.53;;
65583;SDS011;62116;43.582;1.470;2022-08-19T11:58:18;5.85;;;2.60;;
65583;SDS011;62116;43.582;1.470;2022-08-19T12:00:44;5.97;;;2.70;;
65583;SDS011;62116;43.582;1.470;2022-08-19T12:03:10;6.10;;;2.70;;
65583;SDS011;62116;43.582;1.470;2022-08-19T12:05:37;4.85;;;2.60;;
65583;SDS011;62116;43.582;1.470;2022-08-19T12:08:04;5.00;;;2.58;;
65583;SDS011;62116;43.582;1.470;2022-08-19T12:10:29;4.78;;;2.60;;
65583;SDS011;62116;43.582;1.470;2022-08-19T12:12:55;6.13;;;2.67;;
65583;SDS011;62116;43.582;1.470;2022-08-19T12:15:20;7.45;;;3.03;;
65583;SDS011;62116;43.582;1.470;2022-08-19T12:17:46;4.38;;;2.60;;
65583;SDS011;62116;43.582;1.470;2022-08-19T12:20:11;7.63;;;2.80;;
65583;SDS011;62116;43.582;1.470;2022-08-19T12:22:40;5.07;;;2.70;;
65583;SDS011;62116;43.582;1.470;2022-08-19T12:25:07;5.53;;;2.70;;
65583;SDS011;62116;43.582;1.470;2022-08-19T12:27:34;5.68;;;2.53;;
65583;SDS011;62116;43.582;1.470;2022-08-19T12:30:01;5.38;;;2.60;;
65583;SDS011;62116;43.582;1.470;2022-08-19T12:32:28;5.28;;;2.38;;
65583;SDS011;62116;43.582;1.470;2022-08-19T12:34:53;5.88;;;2.72;;
65583;SDS011;62116;43.582;1.470;2022-08-19T12:37:19;4.70;;;2.58;;
65583;SDS011;62116;43.582;1.470;2022-08-19T12:39:45;5.22;;;2.40;;
65583;SDS011;62116;43.582;1.470;2022-08-19T12:42:11;4.85;;;2.50;;
65583;SDS011;62116;43.582;1.470;2022-08-19T12:44:38;5.95;;;2.65;;
65583;SDS011;62116;43.582;1.470;2022-08-19T12:47:05;5.10;;;2.38;;
65583;SDS011;62116;43.582;1.470;2022-08-19T12:49:31;5.72;;;2.63;;
65583;SDS011;62116;43.582;1.470;2022-08-19T12:52:02;4.30;;;2.63;;
65583;SDS011;62116;43.582;1.470;2022-08-19T12:54:28;5.90;;;2.45;;
65583;SDS011;62116;43.582;1.470;2022-08-19T12:56:55;7.40;;;2.60;;
65583;SDS011;62116;43.582;1.470;2022-08-19T12:59:22;4.45;;;2.60;;
65583;SDS011;62116;43.582;1.470;2022-08-19T13:01:47;6.97;;;2.50;;
65583;SDS011;62116;43.582;1.470;2022-08-19T13:04:13;4.13;;;2.53;;
65583;SDS011;62116;43.582;1.470;2022-08-19T13:06:38;4.07;;;2.40;;
65583;SDS011;62116;43.582;1.470;2022-08-19T13:09:04;5.00;;;2.38;;
65583;SDS011;62116;43.582;1.470;2022-08-19T13:11:30;3.80;;;2.20;;
65583;SDS011;62116;43.582;1.470;2022-08-19T13:13:59;5.97;;;2.47;;
65583;SDS011;62116;43.582;1.470;2022-08-19T13:16:26;5.78;;;2.67;;
65583;SDS011;62116;43.582;1.470;2022-08-19T13:18:52;6.00;;;2.35;;
65583;SDS011;62116;43.582;1.470;2022-08-19T13:21:20;5.88;;;2.30;;
65583;SDS011;62116;43.582;1.470;2022-08-19T13:23:47;5.03;;;2.45;;
65583;SDS011;62116;43.582;1.470;2022-08-19T13:26:14;4.25;;;2.40;;
65583;SDS011;62116;43.582;1.470;2022-08-19T13:28:41;6.00;;;2.38;;
65583;SDS011;62116;43.582;1.470;2022-08-19T13:31:27;6.60;;;2.30;;
65583;SDS011;62116;43.582;1.470;2022-08-19T13:34:13;3.90;;;2.33;;
65583;SDS011;62116;43.582;1.470;2022-08-19T13:36:40;6.85;;;2.60;;
65583;SDS011;62116;43.582;1.470;2022-08-19T13:39:06;4.68;;;2.45;;
65583;SDS011;62116;43.582;1.470;2022-08-19T13:41:33;6.97;;;2.60;;
65583;SDS011;62116;43.582;1.470;2022-08-19T13:43:59;5.35;;;2.20;;
65583;SDS011;62116;43.582;1.470;2022-08-19T13:46:25;5.03;;;2.45;;
65583;SDS011;62116;43.582;1.470;2022-08-19T13:48:52;5.78;;;2.10;;
65583;SDS011;62116;43.582;1.470;2022-08-19T13:51:17;5.53;;;2.40;;
65583;SDS011;62116;43.582;1.470;2022-08-19T13:53:43;3.63;;;2.15;;
65583;SDS011;62116;43.582;1.470;2022-08-19T13:56:09;5.20;;;2.40;;
65583;SDS011;62116;43.582;1.470;2022-08-19T13:58:37;4.30;;;2.30;;
65583;SDS011;62116;43.582;1.470;2022-08-19T14:01:04;6.20;;;2.20;;
65583;SDS011;62116;43.582;1.470;2022-08-19T14:03:30;8.30;;;2.22;;
65583;SDS011;62116;43.582;1.470;2022-08-19T14:05:57;5.03;;;2.10;;
65583;SDS011;62116;43.582;1.470;2022-08-19T14:08:23;5.25;;;2.40;;
65583;SDS011;62116;43.582;1.470;2022-08-19T14:10:50;4.45;;;2.30;;
65583;SDS011;62116;43.582;1.470;2022-08-19T14:13:17;9.15;;;2.40;;
65583;SDS011;62116;43.582;1.470;2022-08-19T14:15:44;14.23;;;2.67;;
65583;SDS011;62116;43.582;1.470;2022-08-19T14:18:10;7.82;;;2.33;;
65583;SDS011;62116;43.582;1.470;2022-08-19T14:20:36;4.95;;;2.38;;
65583;SDS011;62116;43.582;1.470;2022-08-19T14:23:02;5.38;;;2.53;;
65583;SDS011;62116;43.582;1.470;2022-08-19T14:25:30;6.10;;;2.75;;
65583;SDS011;62116;43.582;1.470;2022-08-19T14:27:56;4.80;;;2.20;;
65583;SDS011;62116;43.582;1.470;2022-08-19T14:30:24;6.55;;;2.38;;
65583;SDS011;62116;43.582;1.470;2022-08-19T14:32:52;3.63;;;2.40;;
65583;SDS011;62116;43.582;1.470;2022-08-19T14:35:19;4.55;;;2.40;;
65583;SDS011;62116;43.582;1.470;2022-08-19T14:37:46;5.78;;;3.08;;
65583;SDS011;62116;43.582;1.470;2022-08-19T14:40:16;3.78;;;2.40;;
65583;SDS011;62116;43.582;1.470;2022-08-19T14:42:46;5.10;;;2.40;;
65583;SDS011;62116;43.582;1.470;2022-08-19T14:45:13;4.35;;;2.30;;
65583;SDS011;62116;43.582;1.470;2022-08-19T14:47:39;8.15;;;3.20;;
65583;SDS011;62116;43.582;1.470;2022-08-19T14:50:06;5.20;;;2.47;;
65583;SDS011;62116;43.582;1.470;2022-08-19T14:52:33;6.60;;;3.10;;
65583;SDS011;62116;43.582;1.470;2022-08-19T14:54:58;4.47;;;2.22;;
65583;SDS011;62116;43.582;1.470;2022-08-19T14:57:24;7.72;;;2.83;;
65583;SDS011;62116;43.582;1.470;2022-08-19T14:59:50;5.20;;;2.47;;
65583;SDS011;62116;43.582;1.470;2022-08-19T15:02:15;4.72;;;2.20;;
65583;SDS011;62116;43.582;1.470;2022-08-19T15:04:41;5.22;;;2.60;;